createdAt,value
2018-09-18T00:01:43.173Z,28.17
2018-09-18T00:04:11.337Z,27.73
2018-09-18T00:06:39.563Z,28.17
2018-09-18T00:09:08.831Z,26.63
2018-09-18T00:11:37.049Z,28.20
2018-09-18T00:14:05.375Z,28.40
2018-09-18T00:16:33.581Z,27.80
2018-09-18T00:19:01.715Z,27.80
2018-09-18T00:21:29.819Z,29.10
2018-09-18T00:23:58.030Z,28.23
2018-09-18T00:26:26.172Z,29.07
2018-09-18T00:28:54.299Z,27.10
2018-09-18T00:31:22.447Z,27.90
2018-09-18T00:33:50.577Z,27.33
2018-09-18T00:36:18.640Z,28.37
2018-09-18T00:38:47.137Z,27.90
2018-09-18T00:41:15.365Z,26.97
2018-09-18T00:43:43.514Z,27.70
2018-09-18T00:46:12.298Z,28.20
2018-09-18T00:48:41.486Z,27.60
2018-09-18T00:51:09.645Z,27.70
2018-09-18T00:53:37.815Z,26.83
2018-09-18T00:56:05.989Z,28.20
2018-09-18T00:58:34.139Z,28.00
2018-09-18T01:01:02.302Z,26.30
2018-09-18T01:03:30.427Z,27.30
2018-09-18T01:05:58.576Z,27.53
2018-09-18T01:08:26.649Z,27.77
2018-09-18T01:10:54.794Z,28.30
2018-09-18T01:13:22.900Z,27.57
2018-09-18T01:15:51.116Z,28.20
2018-09-18T01:18:19.223Z,27.40
2018-09-18T01:20:47.291Z,27.90
2018-09-18T01:23:15.443Z,27.60
2018-09-18T01:25:43.561Z,28.73
2018-09-18T01:28:11.645Z,27.53
2018-09-18T01:30:39.811Z,27.47
2018-09-18T01:33:08.029Z,28.67
2018-09-18T01:35:36.182Z,27.60
2018-09-18T01:38:04.321Z,27.90
2018-09-18T01:40:32.537Z,27.03
2018-09-18T01:43:00.684Z,26.80
2018-09-18T01:45:29.059Z,27.57
2018-09-18T01:47:57.263Z,26.80
2018-09-18T01:50:25.424Z,27.53
2018-09-18T01:52:53.599Z,27.87
2018-09-18T01:55:21.876Z,27.60
2018-09-18T01:57:50.033Z,27.37
2018-09-18T02:00:18.238Z,27.10
2018-09-18T02:02:46.390Z,27.93
2018-09-18T02:05:14.545Z,28.00
2018-09-18T02:07:42.617Z,27.37
2018-09-18T02:11:35.344Z,27.17
2018-09-18T02:14:03.463Z,27.87
2018-09-18T02:16:31.652Z,27.00
2018-09-18T02:18:59.873Z,27.53
2018-09-18T02:24:59.496Z,26.87
2018-09-18T02:27:27.612Z,27.50
2018-09-18T02:29:55.850Z,28.17
2018-09-18T02:32:24.053Z,27.43
2018-09-18T02:34:52.245Z,27.27
2018-09-18T02:37:20.415Z,26.97
2018-09-18T02:39:48.609Z,27.17
2018-09-18T02:42:16.813Z,28.27
2018-09-18T02:44:44.994Z,27.80
2018-09-18T02:47:13.077Z,26.57
2018-09-18T02:49:41.233Z,27.30
2018-09-18T02:52:09.357Z,26.03
2018-09-18T02:54:37.503Z,27.07
2018-09-18T02:57:05.584Z,27.40
2018-09-18T02:59:33.688Z,25.90
2018-09-18T03:02:01.888Z,26.73
2018-09-18T03:04:29.996Z,27.80
2018-09-18T03:06:58.131Z,27.73
2018-09-18T03:09:26.308Z,27.63
2018-09-18T03:11:54.497Z,26.80
2018-09-18T03:14:22.622Z,28.03
2018-09-18T03:16:50.836Z,28.20
2018-09-18T03:19:18.994Z,27.53
2018-09-18T03:21:47.133Z,27.30
2018-09-18T03:24:15.266Z,27.23
2018-09-18T03:26:43.422Z,27.87
2018-09-18T03:29:11.501Z,26.83
2018-09-18T03:31:39.706Z,26.40
2018-09-18T03:34:07.810Z,26.20
2018-09-18T03:36:35.986Z,25.90
2018-09-18T03:39:05.584Z,27.67
2018-09-18T03:41:33.709Z,27.20
2018-09-18T03:44:01.841Z,26.27
2018-09-18T03:47:54.554Z,28.80
2018-09-18T03:50:22.595Z,26.00
2018-09-18T03:52:50.820Z,27.90
2018-09-18T03:55:18.955Z,26.73
2018-09-18T03:57:47.107Z,28.20
2018-09-18T04:00:15.248Z,27.20
2018-09-18T04:02:43.457Z,27.10
2018-09-18T04:05:11.512Z,29.13
2018-09-18T04:07:39.689Z,27.80
2018-09-18T04:10:07.945Z,27.73
2018-09-18T04:12:36.078Z,26.83
2018-09-18T04:15:04.462Z,27.60
2018-09-18T04:17:32.680Z,26.33
2018-09-18T04:20:00.731Z,26.37
2018-09-18T04:22:28.813Z,27.07
2018-09-18T04:24:56.908Z,25.93
2018-09-18T04:27:25.096Z,26.80
2018-09-18T04:29:53.276Z,25.97
2018-09-18T04:32:21.453Z,27.00
2018-09-18T04:34:49.611Z,26.50
2018-09-18T04:37:17.647Z,26.53
2018-09-18T04:39:45.758Z,26.43
2018-09-18T04:42:13.897Z,27.03
2018-09-18T04:44:42.002Z,26.37
2018-09-18T04:47:10.180Z,27.23
2018-09-18T04:49:38.389Z,26.40
2018-09-18T04:52:06.490Z,26.67
2018-09-18T04:54:34.657Z,26.90
2018-09-18T04:57:02.745Z,27.43
2018-09-18T04:59:30.874Z,26.20
2018-09-18T05:01:59.065Z,27.37
2018-09-18T05:04:27.196Z,27.17
2018-09-18T05:06:55.373Z,27.50
2018-09-18T05:09:23.584Z,26.30
2018-09-18T05:11:51.751Z,25.80
2018-09-18T05:14:19.923Z,26.87
2018-09-18T05:16:48.088Z,26.17
2018-09-18T05:19:16.290Z,26.63
2018-09-18T05:21:44.373Z,26.70
2018-09-18T05:24:12.489Z,27.47
2018-09-18T05:26:40.681Z,26.63
2018-09-18T05:29:08.841Z,26.13
2018-09-18T05:31:36.998Z,27.20
2018-09-18T05:34:05.108Z,27.57
2018-09-18T05:36:33.274Z,26.37
2018-09-18T05:39:01.505Z,27.37
2018-09-18T05:41:29.616Z,26.27
2018-09-18T05:43:57.740Z,28.23
2018-09-18T05:46:25.894Z,27.53
2018-09-18T05:48:54.054Z,27.40
2018-09-18T05:51:22.225Z,26.57
2018-09-18T05:53:50.408Z,26.40
2018-09-18T05:56:18.570Z,26.40
2018-09-18T05:58:46.721Z,26.77
2018-09-18T06:01:14.934Z,27.10
2018-09-18T06:03:43.064Z,27.57
2018-09-18T06:06:11.284Z,26.60
2018-09-18T06:08:39.479Z,26.23
2018-09-18T06:11:07.673Z,28.60
2018-09-18T06:13:35.797Z,27.50
2018-09-18T06:16:03.940Z,26.70
2018-09-18T06:18:32.157Z,27.80
2018-09-18T06:21:00.339Z,26.50
2018-09-18T06:23:28.492Z,28.63
2018-09-18T06:25:56.689Z,28.77
2018-09-18T06:28:24.841Z,27.37
2018-09-18T06:30:53.001Z,27.63
2018-09-18T06:33:21.219Z,27.70
2018-09-18T06:35:49.565Z,26.20
2018-09-18T06:38:18.068Z,27.77
2018-09-18T06:40:46.175Z,26.60
2018-09-18T06:43:14.288Z,26.37
2018-09-18T06:45:42.626Z,28.20
2018-09-18T06:48:10.759Z,27.33
2018-09-18T06:50:38.912Z,27.50
2018-09-18T06:53:07.349Z,26.67
2018-09-18T06:55:35.447Z,29.03
2018-09-18T06:58:03.669Z,27.20
2018-09-18T07:00:31.833Z,28.10
2018-09-18T07:03:00.012Z,27.97
2018-09-18T07:05:28.203Z,28.10
2018-09-18T07:07:56.248Z,28.50
2018-09-18T07:10:24.294Z,28.47
2018-09-18T07:12:52.447Z,28.10
2018-09-18T07:15:20.604Z,29.10
2018-09-18T07:17:48.966Z,28.23
2018-09-18T07:20:17.088Z,30.43
2018-09-18T07:22:45.248Z,27.50
2018-09-18T07:25:13.305Z,28.37
2018-09-18T07:27:41.442Z,28.00
2018-09-18T07:30:09.756Z,28.63
2018-09-18T07:32:37.892Z,29.00
2018-09-18T07:35:06.205Z,28.00
2018-09-18T07:37:34.321Z,29.10
2018-09-18T07:40:02.601Z,27.87
2018-09-18T07:42:30.723Z,30.00
2018-09-18T07:44:58.800Z,29.17
2018-09-18T07:47:27.899Z,28.33
2018-09-18T07:49:56.025Z,30.10
2018-09-18T07:52:24.230Z,27.50
2018-09-18T07:54:52.357Z,28.83
2018-09-18T07:57:20.545Z,28.57
2018-09-18T07:59:48.809Z,29.53
2018-09-18T08:02:16.887Z,30.37
2018-09-18T08:04:45.045Z,28.90
2018-09-18T08:07:13.117Z,28.23
2018-09-18T08:09:42.144Z,28.03
2018-09-18T08:12:10.330Z,30.30
2018-09-18T08:14:38.518Z,28.87
2018-09-18T08:17:06.684Z,29.03
2018-09-18T08:19:34.995Z,28.80
2018-09-18T08:22:03.176Z,28.53
2018-09-18T08:24:31.231Z,28.80
2018-09-18T08:26:59.461Z,27.50
2018-09-18T08:29:27.645Z,29.73
2018-09-18T08:31:55.772Z,28.47
2018-09-18T08:34:24.065Z,28.97
2018-09-18T08:36:52.228Z,29.60
2018-09-18T08:39:20.339Z,29.73
2018-09-18T08:41:48.547Z,29.30
2018-09-18T08:44:16.675Z,28.03
2018-09-18T08:46:44.838Z,27.93
2018-09-18T08:49:13.091Z,29.43
2018-09-18T08:51:41.217Z,29.47
2018-09-18T08:54:09.294Z,28.57
2018-09-18T08:56:37.448Z,28.00
2018-09-18T08:59:05.625Z,29.77
2018-09-18T09:01:33.766Z,29.67
2018-09-18T09:04:01.937Z,27.13
2018-09-18T09:06:30.093Z,28.50
2018-09-18T09:08:58.373Z,29.40
2018-09-18T09:11:26.441Z,29.30
2018-09-18T09:13:54.635Z,29.00
2018-09-18T09:16:22.727Z,28.03
2018-09-18T09:18:50.958Z,28.90
2018-09-18T09:21:19.171Z,27.63
2018-09-18T09:23:47.311Z,27.27
2018-09-18T09:26:15.506Z,28.20
2018-09-18T09:28:43.674Z,28.50
2018-09-18T09:31:11.991Z,27.57
2018-09-18T09:33:40.221Z,27.47
2018-09-18T09:36:08.353Z,27.17
2018-09-18T09:38:36.578Z,27.03
2018-09-18T09:41:04.742Z,27.00
2018-09-18T09:43:32.865Z,27.83
2018-09-18T09:46:01.070Z,26.93
2018-09-18T09:48:33.013Z,27.00
2018-09-18T09:51:02.187Z,27.10
2018-09-18T09:53:30.381Z,26.27
2018-09-18T09:55:58.493Z,26.70
2018-09-18T09:58:26.665Z,26.23
2018-09-18T10:01:00.132Z,26.57
2018-09-18T10:03:28.265Z,26.50
2018-09-18T10:05:56.428Z,26.50
2018-09-18T10:08:24.914Z,26.40
2018-09-18T10:10:53.132Z,26.37
2018-09-18T10:13:21.321Z,27.67
2018-09-18T10:15:49.465Z,26.60
2018-09-18T10:18:17.739Z,26.20
2018-09-18T10:20:46.780Z,27.03
2018-09-18T10:23:14.910Z,26.80
2018-09-18T10:25:43.074Z,26.30
2018-09-18T10:28:11.187Z,26.80
2018-09-18T10:30:39.314Z,27.03
2018-09-18T10:33:07.460Z,26.00
2018-09-18T10:35:35.653Z,26.40
2018-09-18T10:38:03.907Z,26.70
2018-09-18T10:40:32.055Z,26.07
2018-09-18T10:43:00.314Z,26.23
2018-09-18T10:45:28.421Z,25.90
2018-09-18T10:47:56.551Z,26.10
2018-09-18T10:50:24.803Z,26.47
2018-09-18T10:52:53.105Z,27.10
2018-09-18T10:55:21.333Z,25.33
2018-09-18T10:57:49.505Z,26.37
2018-09-18T11:00:17.626Z,26.10
2018-09-18T11:02:45.851Z,24.63
2018-09-18T11:05:14.108Z,25.20
2018-09-18T11:07:42.247Z,25.83
2018-09-18T11:10:10.387Z,26.57
2018-09-18T11:12:38.565Z,25.30
2018-09-18T11:15:06.852Z,27.20
2018-09-18T11:17:35.502Z,25.83
2018-09-18T11:20:04.076Z,26.60
2018-09-18T11:22:32.184Z,25.13
2018-09-18T11:25:00.378Z,25.97
2018-09-18T11:27:28.532Z,27.57
2018-09-18T11:29:56.774Z,26.00
2018-09-18T11:32:24.884Z,26.73
2018-09-18T11:34:53.137Z,25.00
2018-09-18T11:37:21.406Z,25.47
2018-09-18T11:39:49.615Z,25.33
2018-09-18T11:42:18.094Z,26.20
2018-09-18T11:44:46.244Z,25.27
2018-09-18T11:47:15.035Z,25.43
2018-09-18T11:49:43.124Z,25.83
2018-09-18T11:52:11.722Z,25.27
2018-09-18T11:54:39.996Z,26.00
2018-09-18T11:57:08.326Z,26.10
2018-09-18T11:59:36.506Z,27.10
2018-09-18T12:02:04.620Z,26.10
2018-09-18T12:04:32.945Z,25.00
2018-09-18T12:07:01.131Z,24.73
2018-09-18T12:09:29.245Z,24.90
2018-09-18T12:11:57.466Z,24.27
2018-09-18T12:14:25.709Z,24.47
2018-09-18T12:16:53.922Z,25.00
2018-09-18T12:19:22.035Z,24.60
2018-09-18T12:21:50.276Z,24.27
2018-09-18T12:24:18.366Z,25.50
2018-09-18T12:26:46.558Z,24.63
2018-09-18T12:29:14.786Z,25.10
2018-09-18T12:31:42.945Z,24.00
2018-09-18T12:34:11.121Z,23.57
2018-09-18T12:36:39.282Z,24.40
2018-09-18T12:39:08.409Z,24.73
2018-09-18T12:41:36.577Z,23.60
2018-09-18T12:44:04.829Z,25.10
2018-09-18T12:46:33.007Z,24.27
2018-09-18T12:49:01.217Z,24.30
2018-09-18T12:51:29.411Z,25.27
2018-09-18T12:53:57.631Z,24.43
2018-09-18T12:56:25.831Z,23.50
2018-09-18T12:58:54.213Z,23.63
2018-09-18T13:01:22.325Z,25.40
2018-09-18T13:03:50.487Z,25.53
2018-09-18T13:06:18.768Z,24.40
2018-09-18T13:08:46.872Z,24.43
2018-09-18T13:11:15.006Z,25.13
2018-09-18T13:13:43.206Z,23.80
2018-09-18T13:16:11.410Z,24.40
2018-09-18T13:18:39.572Z,25.53
2018-09-18T13:21:07.745Z,25.07
2018-09-18T13:23:35.944Z,24.50
2018-09-18T13:26:04.093Z,25.30
2018-09-18T13:28:32.280Z,25.47
2018-09-18T13:31:00.499Z,24.70
2018-09-18T13:33:28.613Z,24.73
2018-09-18T13:35:56.764Z,24.53
2018-09-18T13:38:24.877Z,24.10
2018-09-18T13:40:53.123Z,24.37
2018-09-18T13:43:21.351Z,25.03
2018-09-18T13:45:49.728Z,24.93
2018-09-18T13:48:17.885Z,24.73
2018-09-18T13:50:46.095Z,25.33
2018-09-18T13:53:14.297Z,25.20
2018-09-18T13:55:42.425Z,25.63
2018-09-18T13:58:10.589Z,25.40
2018-09-18T14:00:38.778Z,25.83
2018-09-18T14:03:06.849Z,24.50
2018-09-18T14:05:35.086Z,23.80
2018-09-18T14:08:03.315Z,24.37
2018-09-18T14:10:31.382Z,23.63
2018-09-18T14:12:59.568Z,25.33
2018-09-18T14:15:27.635Z,24.40
2018-09-18T14:17:55.775Z,23.70
2018-09-18T14:20:24.062Z,23.77
2018-09-18T14:22:52.112Z,24.33
2018-09-18T14:25:20.252Z,24.37
2018-09-18T14:27:48.367Z,25.37
2018-09-18T14:30:17.493Z,23.80
2018-09-18T14:32:45.581Z,24.33
2018-09-18T14:35:13.762Z,24.30
2018-09-18T14:37:41.881Z,24.90
2018-09-18T14:40:10.088Z,23.77
2018-09-18T14:42:38.239Z,23.87
2018-09-18T14:45:06.440Z,24.47
2018-09-18T14:47:34.532Z,23.70
2018-09-18T14:50:02.629Z,24.00
2018-09-18T14:52:30.901Z,24.13
2018-09-18T14:54:59.136Z,24.40
2018-09-18T14:57:27.225Z,24.20
2018-09-18T14:59:55.508Z,24.37
2018-09-18T15:02:23.697Z,25.10
2018-09-18T15:04:51.970Z,25.40
2018-09-18T15:07:20.096Z,24.50
2018-09-18T15:09:48.339Z,25.43
2018-09-18T15:12:16.571Z,24.97
2018-09-18T15:14:44.759Z,24.03
2018-09-18T15:17:12.929Z,23.73
2018-09-18T15:19:41.037Z,24.70
2018-09-18T15:22:09.301Z,24.23
2018-09-18T15:24:37.523Z,24.90
2018-09-18T15:27:05.660Z,24.10
2018-09-18T15:29:33.846Z,23.43
2018-09-18T15:32:02.107Z,23.70
2018-09-18T15:34:30.250Z,24.37
2018-09-18T15:36:58.345Z,23.57
2018-09-18T15:39:26.480Z,24.60
2018-09-18T15:41:54.557Z,23.77
2018-09-18T15:44:22.744Z,23.93
2018-09-18T15:46:50.903Z,24.57
2018-09-18T15:49:19.098Z,25.10
2018-09-18T15:51:47.309Z,24.70
2018-09-18T15:54:15.425Z,23.53
2018-09-18T15:56:43.620Z,24.63
2018-09-18T15:59:11.799Z,26.10
2018-09-18T16:01:39.954Z,24.70
2018-09-18T16:04:08.188Z,27.30
2018-09-18T16:06:36.296Z,25.17
2018-09-18T16:09:06.636Z,25.30
2018-09-18T16:11:34.801Z,26.23
2018-09-18T16:14:03.074Z,24.80
2018-09-18T16:16:31.366Z,26.30
2018-09-18T16:18:59.391Z,25.37
2018-09-18T16:21:27.478Z,27.93
2018-09-18T16:23:55.606Z,26.90
2018-09-18T16:26:23.781Z,27.20
2018-09-18T16:28:51.941Z,26.70
2018-09-18T16:31:20.127Z,26.13
2018-09-18T16:33:48.316Z,27.03
2018-09-18T16:36:16.444Z,26.60
2018-09-18T16:38:44.685Z,27.17
2018-09-18T16:41:12.807Z,26.60
2018-09-18T16:43:41.103Z,27.83
2018-09-18T16:46:09.256Z,27.00
2018-09-18T16:48:37.496Z,27.17
2018-09-18T16:51:05.693Z,25.43
2018-09-18T16:53:33.915Z,27.93
2018-09-18T16:56:02.075Z,25.60
2018-09-18T16:58:30.236Z,27.10
2018-09-18T17:00:58.453Z,28.07
2018-09-18T17:03:26.580Z,27.97
2018-09-18T17:05:54.802Z,28.10
2018-09-18T17:08:22.910Z,26.10
2018-09-18T17:10:51.105Z,26.10
2018-09-18T17:13:19.325Z,27.43
2018-09-18T17:15:47.664Z,27.40
2018-09-18T17:18:15.789Z,27.40
2018-09-18T17:20:43.950Z,27.00
2018-09-18T17:23:12.109Z,26.60
2018-09-18T17:25:40.395Z,26.60
2018-09-18T17:28:08.686Z,26.93
2018-09-18T17:30:36.906Z,27.43
2018-09-18T17:33:04.976Z,27.20
2018-09-18T17:35:33.230Z,27.77
2018-09-18T17:38:01.465Z,26.73
2018-09-18T17:40:29.649Z,27.60
2018-09-18T17:42:57.742Z,27.33
2018-09-18T17:45:25.863Z,28.67
2018-09-18T17:47:54.007Z,26.77
2018-09-18T17:50:22.260Z,27.60
2018-09-18T17:52:50.408Z,26.20
2018-09-18T17:55:18.617Z,27.67
2018-09-18T17:57:46.933Z,27.50
2018-09-18T18:00:15.148Z,26.73
2018-09-18T18:02:43.584Z,28.40
2018-09-18T18:05:11.769Z,28.00
2018-09-18T18:07:39.998Z,28.03
2018-09-18T18:10:08.167Z,28.10
2018-09-18T18:12:36.271Z,26.80
2018-09-18T18:15:04.444Z,27.20
2018-09-18T18:17:32.740Z,26.90
2018-09-18T18:20:01.599Z,27.37
2018-09-18T18:22:29.691Z,27.93
2018-09-18T18:24:57.895Z,26.93
2018-09-18T18:27:26.040Z,27.20
2018-09-18T18:29:54.262Z,26.20
2018-09-18T18:32:22.385Z,26.47
2018-09-18T18:34:50.624Z,27.07
2018-09-18T18:37:18.735Z,27.60
2018-09-18T18:39:46.965Z,27.20
2018-09-18T18:42:15.116Z,27.63
2018-09-18T18:44:43.277Z,28.37
2018-09-18T18:47:11.489Z,27.80
2018-09-18T18:49:40.167Z,27.40
2018-09-18T18:52:08.346Z,27.60
2018-09-18T18:54:36.771Z,27.80
2018-09-18T18:57:05.031Z,28.03
2018-09-18T18:59:33.413Z,27.43
2018-09-18T19:02:01.823Z,26.80
2018-09-18T19:04:30.018Z,28.30
2018-09-18T19:06:58.198Z,30.20
2018-09-18T19:09:28.250Z,30.37
2018-09-18T19:11:56.436Z,27.90
2018-09-18T19:14:24.646Z,27.30
2018-09-18T19:16:53.010Z,28.13
2018-09-18T19:19:21.328Z,27.30
2018-09-18T19:21:49.662Z,28.50
2018-09-18T19:24:17.973Z,28.30
2018-09-18T19:26:46.248Z,28.13
2018-09-18T19:29:14.515Z,29.00
2018-09-18T19:31:42.824Z,27.40
2018-09-18T19:34:10.987Z,27.67
2018-09-18T19:36:39.310Z,28.97
2018-09-18T19:39:08.827Z,27.50
2018-09-18T19:41:37.087Z,27.40
2018-09-18T19:44:05.481Z,29.40
2018-09-18T19:46:33.729Z,27.67
2018-09-18T19:49:01.892Z,28.07
2018-09-18T19:51:30.069Z,27.70
2018-09-18T19:53:58.209Z,27.00
2018-09-18T19:56:26.424Z,27.97
2018-09-18T19:58:54.834Z,28.80
2018-09-18T20:01:23.442Z,28.00
2018-09-18T20:03:51.713Z,27.70
2018-09-18T20:06:20.108Z,27.50
2018-09-18T20:08:48.289Z,28.23
2018-09-18T20:11:16.432Z,28.10
2018-09-18T20:13:44.731Z,29.50
2018-09-18T20:16:12.874Z,30.17
2018-09-18T20:18:41.110Z,28.90
2018-09-18T20:21:09.330Z,29.03
2018-09-18T20:23:37.570Z,29.37
2018-09-18T20:26:05.926Z,29.97
2018-09-18T20:28:34.196Z,29.10
2018-09-18T20:31:02.521Z,28.63
2018-09-18T20:33:30.645Z,29.20
2018-09-18T20:35:59.192Z,28.60
2018-09-18T20:38:27.278Z,28.50
2018-09-18T20:40:55.514Z,28.53
2018-09-18T20:43:23.583Z,28.93
2018-09-18T20:45:51.769Z,28.10
2018-09-18T20:48:19.924Z,28.20
2018-09-18T20:50:48.003Z,28.77
2018-09-18T20:53:16.128Z,28.10
2018-09-18T20:55:44.478Z,28.37
2018-09-18T20:58:12.737Z,29.20
2018-09-18T21:00:40.856Z,28.17
2018-09-18T21:03:09.175Z,27.60
2018-09-18T21:05:37.345Z,27.83
2018-09-18T21:08:05.514Z,27.03
2018-09-18T21:10:33.636Z,28.50
2018-09-18T21:13:01.889Z,29.40
2018-09-18T21:15:30.041Z,30.13
2018-09-18T21:17:58.210Z,28.13
2018-09-18T21:20:26.332Z,28.73
2018-09-18T21:22:54.703Z,30.50
2018-09-18T21:25:30.335Z,30.07
2018-09-18T21:27:58.449Z,27.50
2018-09-18T21:30:26.608Z,30.40
2018-09-18T21:32:54.887Z,29.93
2018-09-18T21:35:23.121Z,29.13
2018-09-18T21:37:51.437Z,29.13
2018-09-18T21:40:19.631Z,28.90
2018-09-18T21:42:47.831Z,29.80
2018-09-18T21:45:15.974Z,29.50
2018-09-18T21:47:44.161Z,29.17
2018-09-18T21:50:12.300Z,29.00
2018-09-18T21:52:40.408Z,28.40
2018-09-18T21:55:08.590Z,30.70
2018-09-18T21:57:36.747Z,30.40
2018-09-18T22:00:06.353Z,29.57
2018-09-18T22:02:34.570Z,31.20
2018-09-18T22:05:02.724Z,30.00
2018-09-18T22:07:30.906Z,30.33
2018-09-18T22:09:59.204Z,30.20
2018-09-18T22:12:27.401Z,30.10
2018-09-18T22:14:55.510Z,29.53
2018-09-18T22:17:23.698Z,29.53
2018-09-18T22:19:51.809Z,29.30
2018-09-18T22:22:20.011Z,29.23
2018-09-18T22:24:48.044Z,30.17
2018-09-18T22:27:16.145Z,30.03
2018-09-18T22:29:44.368Z,29.03
2018-09-18T22:32:12.570Z,29.00
2018-09-18T22:34:40.643Z,30.37
2018-09-18T22:37:08.780Z,29.30
2018-09-18T22:39:36.957Z,29.40
2018-09-18T22:42:05.197Z,28.83
2018-09-18T22:44:33.290Z,28.73
2018-09-18T22:47:01.329Z,28.73
2018-09-18T22:49:29.423Z,29.50
2018-09-18T22:51:57.592Z,28.50
2018-09-18T22:54:25.783Z,30.70
2018-09-18T22:56:53.948Z,29.47
2018-09-18T22:59:22.139Z,28.27
2018-09-18T23:01:50.354Z,30.83
2018-09-18T23:04:18.465Z,31.00
2018-09-18T23:06:46.671Z,30.07
2018-09-18T23:09:14.829Z,29.80
2018-09-18T23:11:42.994Z,29.90
2018-09-18T23:14:11.225Z,29.57
2018-09-18T23:16:39.375Z,30.30
2018-09-18T23:19:07.511Z,30.23
2018-09-18T23:21:35.697Z,29.57
2018-09-18T23:24:03.905Z,30.13
2018-09-18T23:26:32.028Z,29.50
2018-09-18T23:29:00.249Z,27.83
2018-09-18T23:31:28.406Z,28.33
2018-09-18T23:33:56.557Z,28.67
2018-09-18T23:36:24.739Z,29.30
2018-09-18T23:38:52.900Z,28.90
2018-09-18T23:41:21.027Z,28.20
2018-09-18T23:43:49.168Z,29.17
2018-09-18T23:46:17.332Z,27.67
2018-09-18T23:48:45.388Z,27.70
2018-09-18T23:51:13.586Z,29.77
2018-09-18T23:53:41.737Z,26.93
2018-09-18T23:56:09.929Z,27.57
2018-09-18T23:58:38.072Z,26.50
